Long Creek, South Carolina
Current Conditions -  °F | °C
As of 7:35 AM on Sunday 21 Dec 2014 (Local Time) from KTOC Reporting Station
Haze Haze  
Wind Chill: 43°   Ceiling: 200
Heat Index: 43°   Visibility: 2.5mi
Dew Point: 42°   Wind: 3mph
Humidity: 98%   Direction: 100°E
Pressure: 30.23"   Gusts: NA
Location:  34.71°N, 83.14°W
Report Text: KTOC 211235Z AUTO 10003KT 2 1/2SM BR OVC002 06/06 A3023 RMK AO2 T00600057
Loading
Personal Weather Stations






























Interactive Weather Map New forecast layout! Learn more

10-Day Weather Forecast

Advertisements
Track Severe Weather on mobile